createdAt,value
2022-10-11T00:01:27.572Z,15.40
2022-10-11T00:03:54.501Z,14.50
2022-10-11T00:06:21.426Z,16.77
2022-10-11T00:08:48.315Z,14.05
2022-10-11T00:11:15.302Z,14.68
2022-10-11T00:13:42.261Z,13.80
2022-10-11T00:16:11.749Z,14.32
2022-10-11T00:18:39.121Z,13.75
2022-10-11T00:21:08.967Z,13.05
2022-10-11T00:23:36.076Z,14.53
2022-10-11T00:26:06.262Z,14.90
2022-10-11T00:28:34.181Z,15.15
2022-10-11T00:31:01.555Z,17.42
2022-10-11T00:33:28.851Z,13.32
2022-10-11T00:35:56.184Z,15.15
2022-10-11T00:38:23.135Z,17.83
2022-10-11T00:40:50.071Z,14.98
2022-10-11T00:43:18.915Z,15.57
2022-10-11T00:45:58.136Z,14.98
2022-10-11T00:48:35.554Z,14.80
2022-10-11T00:51:08.304Z,13.85
2022-10-11T00:53:35.606Z,14.52
2022-10-11T00:56:20.678Z,13.80
2022-10-11T00:58:48.312Z,13.70
2022-10-11T01:01:15.471Z,13.13
2022-10-11T01:03:43.903Z,15.23
2022-10-11T01:06:10.897Z,16.88
2022-10-11T01:08:39.009Z,14.02
2022-10-11T01:11:06.437Z,14.27
2022-10-11T01:13:39.350Z,16.00
2022-10-11T01:16:37.155Z,15.30
2022-10-11T01:19:51.145Z,15.52
2022-10-11T01:22:39.507Z,13.25
2022-10-11T01:25:21.247Z,15.60
2022-10-11T01:27:59.961Z,14.10
2022-10-11T01:30:29.884Z,16.40
2022-10-11T01:32:59.927Z,15.50
2022-10-11T01:35:38.318Z,13.98
2022-10-11T01:38:30.413Z,14.60
2022-10-11T01:41:02.224Z,13.50
2022-10-11T01:43:30.036Z,13.80
2022-10-11T01:45:58.154Z,14.23
2022-10-11T01:48:25.425Z,16.08
2022-10-11T01:50:55.370Z,15.87
2022-10-11T01:53:44.193Z,14.57
2022-10-11T01:56:38.600Z,12.85
2022-10-11T01:59:28.452Z,14.60
2022-10-11T02:02:28.775Z,14.45
2022-10-11T02:05:03.867Z,13.65
2022-10-11T02:07:47.801Z,13.00
2022-10-11T02:10:29.767Z,14.75
2022-10-11T02:13:28.370Z,13.50
2022-10-11T02:15:58.345Z,14.38
2022-10-11T02:18:28.845Z,14.63
2022-10-11T02:20:58.736Z,14.73
2022-10-11T02:23:34.708Z,15.88
2022-10-11T02:26:05.077Z,15.23
2022-10-11T02:28:36.738Z,15.63
2022-10-11T02:31:06.660Z,15.00
2022-10-11T02:33:42.825Z,14.65
2022-10-11T02:36:21.835Z,13.10
2022-10-11T02:38:54.677Z,14.80
2022-10-11T02:41:36.446Z,13.68
2022-10-11T02:44:08.537Z,13.23
2022-10-11T02:46:37.360Z,14.10
2022-10-11T02:49:04.612Z,14.82
2022-10-11T02:51:31.951Z,12.57
2022-10-11T02:53:59.141Z,13.90
2022-10-11T02:56:25.901Z,16.23
2022-10-11T02:58:52.620Z,15.73
2022-10-11T03:01:19.480Z,12.25
2022-10-11T03:03:46.293Z,13.90
2022-10-11T03:06:13.168Z,15.88
2022-10-11T03:08:39.887Z,13.63
2022-10-11T03:11:06.852Z,13.30
2022-10-11T03:13:33.605Z,14.05
2022-10-11T03:16:03.595Z,14.30
2022-10-11T03:18:31.455Z,12.40
2022-10-11T03:20:58.205Z,13.90
2022-10-11T03:23:24.997Z,14.30
2022-10-11T03:25:52.056Z,13.60
2022-10-11T03:28:22.243Z,15.13
2022-10-11T03:30:49.758Z,15.25
2022-10-11T03:33:17.212Z,13.68
2022-10-11T03:35:45.829Z,11.80
2022-10-11T03:38:15.428Z,15.20
2022-10-11T03:40:43.290Z,14.50
2022-10-11T03:43:10.857Z,14.30
2022-10-11T03:45:37.620Z,14.15
2022-10-11T03:48:05.094Z,14.07
2022-10-11T03:50:31.823Z,14.25
2022-10-11T03:52:58.544Z,12.83
2022-10-11T03:55:25.360Z,14.38
2022-10-11T03:57:52.119Z,16.00
2022-10-11T04:00:18.889Z,13.70
2022-10-11T04:02:45.709Z,14.32
2022-10-11T04:05:12.667Z,12.83
2022-10-11T04:07:40.066Z,12.40
2022-10-11T04:10:07.692Z,13.65
2022-10-11T04:12:34.822Z,13.43
2022-10-11T04:15:01.618Z,13.90
2022-10-11T04:17:28.321Z,12.97
2022-10-11T04:19:55.098Z,14.57
2022-10-11T04:22:21.818Z,15.23
2022-10-11T04:24:48.577Z,13.27
2022-10-11T04:27:15.301Z,13.00
2022-10-11T04:29:42.023Z,14.10
2022-10-11T04:32:08.906Z,15.35
2022-10-11T04:34:35.646Z,16.42
2022-10-11T04:37:02.358Z,15.35
2022-10-11T04:39:29.100Z,14.30
2022-10-11T04:41:55.892Z,14.98
2022-10-11T04:44:22.653Z,15.30
2022-10-11T04:46:49.392Z,14.88
2022-10-11T04:49:16.158Z,12.30
2022-10-11T04:51:42.954Z,15.38
2022-10-11T04:54:09.765Z,13.30
2022-10-11T04:56:36.592Z,13.70
2022-10-11T04:59:03.613Z,15.40
2022-10-11T05:01:30.372Z,13.27
2022-10-11T05:03:57.121Z,12.50
2022-10-11T05:06:24.175Z,14.13
2022-10-11T05:08:50.946Z,14.88
2022-10-11T05:11:18.225Z,13.00
2022-10-11T05:13:45.949Z,15.05
2022-10-11T05:16:13.605Z,13.23
2022-10-11T05:18:40.633Z,12.65
2022-10-11T05:21:27.648Z,13.27
2022-10-11T05:23:56.313Z,13.48
2022-10-11T05:26:25.138Z,13.20
2022-10-11T05:28:52.845Z,12.43
2022-10-11T05:31:20.005Z,14.48
2022-10-11T05:33:46.973Z,12.75
2022-10-11T05:36:14.050Z,14.80
2022-10-11T05:38:41.073Z,12.75
2022-10-11T05:41:10.870Z,14.35
2022-10-11T05:43:37.689Z,14.35
2022-10-11T05:46:04.841Z,14.27
2022-10-11T05:48:32.100Z,15.43
2022-10-11T05:51:00.589Z,13.10
2022-10-11T05:53:27.453Z,13.93
2022-10-11T05:55:54.348Z,15.13
2022-10-11T05:58:21.346Z,12.25
2022-10-11T06:00:48.124Z,14.43
2022-10-11T06:03:16.395Z,13.57
2022-10-11T06:05:43.316Z,14.68
2022-10-11T06:08:10.701Z,14.27
2022-10-11T06:10:38.685Z,14.68
2022-10-11T06:13:06.080Z,15.45
2022-10-11T06:15:33.617Z,13.40
2022-10-11T06:18:00.741Z,15.23
2022-10-11T06:20:27.730Z,14.40
2022-10-11T06:22:54.560Z,14.43
2022-10-11T06:25:21.361Z,15.68
2022-10-11T06:27:48.112Z,13.95
2022-10-11T06:30:15.275Z,14.13
2022-10-11T06:32:42.030Z,16.85
2022-10-11T06:35:09.302Z,14.98
2022-10-11T06:37:36.156Z,13.82
2022-10-11T06:40:02.946Z,12.77
2022-10-11T06:42:29.702Z,14.48
2022-10-11T06:44:56.401Z,14.75
2022-10-11T06:47:23.179Z,15.30
2022-10-11T06:49:49.889Z,14.15
2022-10-11T06:52:16.667Z,13.45
2022-10-11T06:54:44.995Z,17.38
2022-10-11T06:57:12.305Z,14.82
2022-10-11T06:59:39.047Z,14.73
2022-10-11T07:02:06.766Z,15.07
2022-10-11T07:04:33.971Z,14.85
2022-10-11T07:07:00.862Z,15.20
2022-10-11T07:09:27.974Z,15.75
2022-10-11T07:11:54.802Z,16.10
2022-10-11T07:14:21.577Z,13.90
2022-10-11T07:16:48.395Z,15.88
2022-10-11T07:19:15.242Z,17.23
2022-10-11T07:21:42.006Z,15.60
2022-10-11T07:24:09.006Z,18.80
2022-10-11T07:26:38.792Z,17.67
2022-10-11T07:29:08.064Z,16.35
2022-10-11T07:31:37.170Z,17.80
2022-10-11T07:34:04.100Z,14.95
2022-10-11T07:36:30.875Z,17.27
2022-10-11T07:38:57.684Z,16.75
2022-10-11T07:41:24.396Z,17.17
2022-10-11T07:43:51.334Z,17.50
2022-10-11T07:46:18.904Z,14.87
2022-10-11T07:48:46.129Z,16.95
2022-10-11T07:51:16.399Z,15.95
2022-10-11T07:53:45.996Z,15.10
2022-10-11T07:56:15.290Z,14.70
2022-10-11T07:58:43.001Z,14.18
2022-10-11T08:01:11.329Z,17.40
2022-10-11T08:03:38.829Z,14.77
2022-10-11T08:06:10.306Z,19.27
2022-10-11T08:08:37.616Z,17.00
2022-10-11T08:11:05.655Z,16.27
2022-10-11T08:13:32.843Z,18.73
2022-10-11T08:16:00.579Z,19.60
2022-10-11T08:18:27.540Z,17.08
2022-10-11T08:20:54.318Z,18.35
2022-10-11T08:23:21.201Z,16.70
2022-10-11T08:25:48.387Z,19.17
2022-10-11T08:28:17.548Z,17.88
2022-10-11T08:30:49.589Z,17.70
2022-10-11T08:33:18.102Z,17.35
2022-10-11T08:35:45.182Z,18.63
2022-10-11T08:38:12.186Z,17.52
2022-10-11T08:40:45.721Z,18.40
2022-10-11T08:43:24.998Z,19.35
2022-10-11T08:45:55.994Z,19.70
2022-10-11T08:49:01.835Z,19.17
2022-10-11T08:51:38.105Z,20.07
2022-10-11T08:54:14.143Z,19.80
2022-10-11T08:56:43.202Z,23.55
2022-10-11T08:59:12.971Z,22.60
2022-10-11T09:01:47.393Z,23.65
2022-10-11T09:04:15.965Z,22.05
2022-10-11T09:07:24.825Z,22.45
2022-10-11T09:10:26.427Z,22.50
2022-10-11T09:13:11.436Z,23.95
2022-10-11T09:16:06.375Z,24.98
2022-10-11T09:18:51.682Z,21.67
2022-10-11T09:21:30.065Z,22.33
2022-10-11T09:24:24.947Z,20.52
2022-10-11T09:26:57.570Z,21.67
2022-10-11T09:29:50.361Z,20.85
2022-10-11T09:32:23.481Z,18.48
2022-10-11T09:34:59.562Z,23.60
2022-10-11T09:37:40.782Z,21.05
2022-10-11T09:40:43.405Z,19.88
2022-10-11T09:43:10.517Z,22.77
2022-10-11T09:45:37.350Z,19.52
2022-10-11T09:48:06.710Z,20.05
2022-10-11T09:50:34.144Z,21.30
2022-10-11T09:53:04.931Z,22.48
2022-10-11T09:56:02.051Z,20.20
2022-10-11T09:58:31.861Z,19.80
2022-10-11T10:01:07.604Z,21.85
2022-10-11T10:03:44.368Z,21.90
2022-10-11T10:06:24.727Z,22.30
2022-10-11T10:08:51.764Z,21.85
2022-10-11T10:11:19.633Z,22.20
2022-10-11T10:13:52.428Z,22.20
2022-10-11T10:16:28.259Z,22.30
2022-10-11T10:18:57.845Z,23.40
2022-10-11T10:21:29.942Z,21.35
2022-10-11T10:24:00.123Z,21.30
2022-10-11T10:26:27.329Z,23.35
2022-10-11T10:29:04.075Z,23.58
2022-10-11T10:31:55.283Z,23.42
2022-10-11T10:34:33.212Z,23.75
2022-10-11T10:37:11.928Z,24.60
2022-10-11T10:40:03.513Z,24.83
2022-10-11T10:42:30.362Z,24.80
2022-10-11T10:44:58.620Z,25.17
2022-10-11T10:47:50.556Z,28.60
2022-10-11T10:50:31.165Z,27.50
2022-10-11T10:53:25.317Z,26.38
2022-10-11T10:56:00.276Z,30.00
2022-10-11T10:58:39.174Z,27.60
2022-10-11T11:01:18.848Z,29.17
2022-10-11T11:04:20.338Z,27.10
2022-10-11T11:07:15.132Z,24.92
2022-10-11T11:10:05.892Z,24.73
2022-10-11T11:12:44.377Z,25.83
2022-10-11T11:15:31.233Z,23.02
2022-10-11T11:18:34.933Z,22.70
2022-10-11T11:21:16.774Z,23.73
2022-10-11T11:24:05.125Z,26.15
2022-10-11T11:26:53.122Z,23.60
2022-10-11T11:29:40.012Z,22.43
2022-10-11T11:32:34.729Z,22.83
2022-10-11T11:35:14.540Z,22.95
2022-10-11T11:37:44.112Z,25.35
2022-10-11T11:40:18.715Z,22.00
2022-10-11T11:42:55.886Z,23.83
2022-10-11T11:45:29.633Z,23.95
2022-10-11T11:48:03.016Z,23.92
2022-10-11T11:50:36.682Z,24.92
2022-10-11T11:53:12.818Z,22.73
2022-10-11T11:55:58.001Z,24.23
2022-10-11T11:58:46.362Z,23.17
2022-10-11T12:01:22.421Z,21.15
2022-10-11T12:03:55.526Z,22.38
2022-10-11T12:06:22.314Z,22.30
2022-10-11T12:09:21.574Z,24.83
2022-10-11T12:11:57.526Z,21.63
2022-10-11T12:14:33.083Z,21.75
2022-10-11T12:17:07.457Z,18.50
2022-10-11T12:19:35.501Z,20.95
2022-10-11T12:22:19.997Z,23.77
2022-10-11T12:24:54.360Z,29.58
2022-10-11T12:27:36.422Z,19.65
2022-10-11T12:30:05.153Z,21.38
2022-10-11T12:32:34.866Z,20.60
2022-10-11T12:35:32.414Z,20.40
2022-10-11T12:38:17.406Z,17.52
2022-10-11T12:40:47.104Z,17.63
2022-10-11T12:43:19.497Z,17.85
2022-10-11T12:45:48.025Z,18.98
2022-10-11T12:48:33.959Z,16.40
2022-10-11T12:51:10.805Z,20.90
2022-10-11T12:54:08.028Z,19.67
2022-10-11T12:56:48.425Z,18.70
2022-10-11T12:59:21.741Z,19.02
2022-10-11T13:01:57.749Z,18.20
2022-10-11T13:04:31.287Z,18.70
2022-10-11T13:07:06.915Z,17.90
2022-10-11T13:09:39.059Z,17.92
2022-10-11T13:12:07.144Z,16.58
2022-10-11T13:14:44.991Z,16.70
2022-10-11T13:17:39.091Z,18.70
2022-10-11T13:20:21.335Z,19.45
2022-10-11T13:22:51.101Z,16.58
2022-10-11T13:25:21.412Z,19.23
2022-10-11T13:27:50.721Z,19.35
2022-10-11T13:30:34.253Z,19.45
2022-10-11T13:33:05.825Z,20.02
2022-10-11T13:35:37.405Z,22.55
2022-10-11T13:38:08.733Z,20.95
2022-10-11T13:40:37.451Z,18.15
2022-10-11T13:43:05.789Z,19.13
2022-10-11T13:45:35.146Z,19.87
2022-10-11T13:48:01.997Z,21.10
2022-10-11T13:50:33.479Z,21.63
2022-10-11T13:53:08.360Z,20.80
2022-10-11T13:55:53.665Z,19.50
2022-10-11T13:58:32.472Z,17.45
2022-10-11T14:01:02.985Z,19.40
2022-10-11T14:04:15.501Z,19.80
2022-10-11T14:07:24.050Z,18.55
2022-10-11T14:09:51.014Z,17.47
2022-10-11T14:12:40.395Z,17.38
2022-10-11T14:15:38.000Z,16.60
2022-10-11T14:18:50.738Z,17.92
2022-10-11T14:21:20.811Z,17.17
2022-10-11T14:24:05.289Z,17.92
2022-10-11T14:26:39.120Z,15.93
2022-10-11T14:29:12.135Z,15.07
2022-10-11T14:31:42.164Z,16.42
2022-10-11T14:34:16.359Z,15.00
2022-10-11T14:36:43.066Z,18.47
2022-10-11T14:39:16.247Z,15.10
2022-10-11T14:41:43.627Z,16.63
2022-10-11T14:44:10.738Z,16.75
2022-10-11T14:46:38.675Z,15.50
2022-10-11T14:49:26.789Z,15.32
2022-10-11T14:51:55.779Z,15.60
2022-10-11T14:54:24.911Z,16.58
2022-10-11T14:56:53.846Z,16.58
2022-10-11T14:59:24.761Z,16.23
2022-10-11T15:01:53.772Z,15.60
2022-10-11T15:04:25.012Z,16.92
2022-10-11T15:06:54.178Z,15.85
2022-10-11T15:09:21.480Z,16.90
2022-10-11T15:11:49.648Z,16.27
2022-10-11T15:14:16.691Z,18.10
2022-10-11T15:16:43.954Z,16.75
2022-10-11T15:19:25.038Z,17.93
2022-10-11T15:21:52.563Z,18.47
2022-10-11T15:24:19.963Z,15.10
2022-10-11T15:26:48.070Z,16.00
2022-10-11T15:29:17.725Z,15.48
2022-10-11T15:31:45.783Z,17.25
2022-10-11T15:34:12.613Z,16.20
2022-10-11T15:36:39.326Z,16.65
2022-10-11T15:39:25.312Z,17.23
2022-10-11T15:41:52.061Z,17.95
2022-10-11T15:44:18.847Z,17.40
2022-10-11T15:46:45.975Z,16.20
2022-10-11T15:49:13.879Z,15.60
2022-10-11T15:51:40.708Z,17.60
2022-10-11T15:54:07.452Z,17.73
2022-10-11T15:56:34.250Z,17.90
2022-10-11T15:59:01.082Z,17.40
2022-10-11T16:01:27.862Z,18.88
2022-10-11T16:03:54.680Z,18.15
2022-10-11T16:06:21.392Z,18.20
2022-10-11T16:08:48.161Z,17.17
2022-10-11T16:11:14.997Z,17.80
2022-10-11T16:13:41.978Z,16.85
2022-10-11T16:16:10.106Z,17.05
2022-10-11T16:18:37.520Z,15.15
2022-10-11T16:21:14.253Z,17.80
2022-10-11T16:23:41.079Z,16.40
2022-10-11T16:26:11.868Z,17.25
2022-10-11T16:28:39.302Z,15.18
2022-10-11T16:31:10.581Z,16.20
2022-10-11T16:33:45.910Z,15.77
2022-10-11T16:36:31.857Z,19.48
2022-10-11T16:39:00.373Z,17.80
2022-10-11T16:41:27.804Z,15.73
2022-10-11T16:43:55.243Z,15.40
2022-10-11T16:46:22.654Z,15.00
2022-10-11T16:48:49.432Z,15.48
2022-10-11T16:51:16.378Z,16.63
2022-10-11T16:53:43.162Z,15.38
2022-10-11T16:56:11.888Z,15.93
2022-10-11T16:58:38.835Z,16.70
2022-10-11T17:01:10.399Z,17.08
2022-10-11T17:03:37.612Z,15.38
2022-10-11T17:06:05.573Z,17.25
2022-10-11T17:08:33.111Z,16.70
2022-10-11T17:11:00.345Z,15.50
2022-10-11T17:13:27.229Z,17.05
2022-10-11T17:15:54.081Z,16.35
2022-10-11T17:18:20.830Z,16.88
2022-10-11T17:20:47.707Z,16.00
2022-10-11T17:23:14.477Z,14.80
2022-10-11T17:25:45.880Z,15.27
2022-10-11T17:28:13.284Z,15.85
2022-10-11T17:30:41.954Z,18.73
2022-10-11T17:33:09.070Z,17.80
2022-10-11T17:35:35.893Z,16.02
2022-10-11T17:38:06.192Z,16.55
2022-10-11T17:40:33.256Z,15.30
2022-10-11T17:43:00.031Z,15.18
2022-10-11T17:45:26.755Z,16.35
2022-10-11T17:47:54.201Z,18.90
2022-10-11T17:50:20.938Z,17.58
2022-10-11T17:52:47.888Z,17.35
2022-10-11T17:55:14.947Z,16.15
2022-10-11T17:57:41.773Z,15.32
2022-10-11T18:00:09.220Z,15.20
2022-10-11T18:02:36.000Z,16.65
2022-10-11T18:05:04.191Z,18.50
2022-10-11T18:07:31.063Z,16.48
2022-10-11T18:09:57.951Z,17.60
2022-10-11T18:12:25.942Z,15.23
2022-10-11T18:14:52.854Z,16.25
2022-10-11T18:17:19.938Z,16.90
2022-10-11T18:19:46.755Z,16.02
2022-10-11T18:22:13.562Z,17.80
2022-10-11T18:24:41.515Z,18.13
2022-10-11T18:27:08.379Z,16.70
2022-10-11T18:29:35.224Z,17.45
2022-10-11T18:32:01.995Z,16.02
2022-10-11T18:34:28.722Z,16.75
2022-10-11T18:36:55.698Z,16.83
2022-10-11T18:39:22.602Z,17.17
2022-10-11T18:41:49.324Z,17.03
2022-10-11T18:44:17.109Z,18.88
2022-10-11T18:46:44.720Z,16.40
2022-10-11T18:49:11.945Z,17.75
2022-10-11T18:51:40.493Z,16.65
2022-10-11T18:54:12.032Z,18.80
2022-10-11T18:56:41.210Z,19.13
2022-10-11T18:59:08.365Z,17.00
2022-10-11T19:01:38.594Z,16.30
2022-10-11T19:04:07.138Z,18.83
2022-10-11T19:06:36.987Z,18.52
2022-10-11T19:09:17.745Z,16.00
2022-10-11T19:11:44.958Z,18.58
2022-10-11T19:14:14.763Z,16.95
2022-10-11T19:16:45.425Z,18.17
2022-10-11T19:19:12.886Z,18.10
2022-10-11T19:21:39.705Z,17.27
2022-10-11T19:24:06.930Z,18.02
2022-10-11T19:26:36.630Z,16.95
2022-10-11T19:29:06.709Z,16.50
2022-10-11T19:31:35.916Z,16.52
2022-10-11T19:34:02.890Z,17.30
2022-10-11T19:36:35.484Z,16.73
2022-10-11T19:39:04.820Z,17.33
2022-10-11T19:41:32.419Z,17.80
2022-10-11T19:43:59.581Z,17.67
2022-10-11T19:46:49.968Z,16.65
2022-10-11T19:49:15.905Z,17.90
2022-10-11T19:51:42.674Z,18.08
2022-10-11T19:54:13.523Z,17.33
2022-10-11T19:56:40.271Z,16.50
2022-10-11T19:59:07.387Z,17.80
2022-10-11T20:01:35.674Z,17.05
2022-10-11T20:04:05.468Z,18.08
2022-10-11T20:06:38.053Z,18.65
2022-10-11T20:09:28.488Z,17.00
2022-10-11T20:11:56.443Z,17.70
2022-10-11T20:14:23.285Z,16.27
2022-10-11T20:16:50.739Z,15.90
2022-10-11T20:19:17.811Z,16.58
2022-10-11T20:21:45.113Z,16.65
2022-10-11T20:24:12.627Z,15.88
2022-10-11T20:26:39.752Z,16.42
2022-10-11T20:29:07.131Z,15.60
2022-10-11T20:31:38.427Z,16.92
2022-10-11T20:34:07.337Z,14.55
2022-10-11T20:36:35.894Z,16.15
2022-10-11T20:39:03.710Z,17.10
2022-10-11T20:41:32.956Z,16.65
2022-10-11T20:44:01.050Z,18.47
2022-10-11T20:46:31.506Z,16.48
2022-10-11T20:49:02.045Z,15.63
2022-10-11T20:51:34.024Z,19.13
2022-10-11T20:54:02.023Z,15.70
2022-10-11T20:56:29.707Z,17.33
2022-10-11T20:58:57.519Z,17.20
2022-10-11T21:01:33.098Z,17.60
2022-10-11T21:04:01.255Z,16.27
2022-10-11T21:06:29.135Z,17.00
2022-10-11T21:08:56.749Z,19.42
2022-10-11T21:11:31.868Z,19.38
2022-10-11T21:14:02.068Z,17.85
2022-10-11T21:16:29.092Z,16.10
2022-10-11T21:18:57.631Z,17.55
2022-10-11T21:21:25.620Z,16.55
2022-10-11T21:23:57.168Z,17.10
2022-10-11T21:26:24.216Z,16.10
2022-10-11T21:28:51.806Z,17.20
2022-10-11T21:31:20.338Z,16.40
2022-10-11T21:33:47.131Z,17.25
2022-10-11T21:36:17.140Z,18.60
2022-10-11T21:38:44.414Z,20.30
2022-10-11T21:41:14.200Z,21.65
2022-10-11T21:43:41.250Z,18.27
2022-10-11T21:46:54.151Z,18.45
2022-10-11T21:49:16.627Z,20.60
2022-10-11T21:51:43.517Z,18.05
2022-10-11T21:54:10.532Z,19.10
2022-10-11T21:56:37.356Z,18.30
2022-10-11T21:59:06.594Z,18.52
2022-10-11T22:01:36.794Z,19.55
2022-10-11T22:04:04.950Z,20.00
2022-10-11T22:06:31.738Z,17.30
2022-10-11T22:09:00.623Z,19.40
2022-10-11T22:11:27.517Z,18.30
2022-10-11T22:13:54.278Z,17.63
2022-10-11T22:16:21.054Z,17.23
2022-10-11T22:18:48.129Z,18.15
2022-10-11T22:21:21.177Z,19.05
2022-10-11T22:23:50.613Z,16.52
2022-10-11T22:26:27.109Z,20.70
2022-10-11T22:28:53.952Z,16.87
2022-10-11T22:31:21.054Z,17.38
2022-10-11T22:33:48.416Z,18.57
2022-10-11T22:36:19.228Z,16.77
2022-10-11T22:38:47.043Z,16.75
2022-10-11T22:41:13.860Z,18.67
2022-10-11T22:43:40.670Z,15.70
2022-10-11T22:46:08.598Z,16.63
2022-10-11T22:48:35.901Z,17.13
2022-10-11T22:51:02.929Z,15.52
2022-10-11T22:53:30.692Z,17.90
2022-10-11T22:55:57.506Z,17.38
2022-10-11T22:58:24.232Z,16.60
2022-10-11T23:00:51.021Z,18.35
2022-10-11T23:03:18.615Z,16.20
2022-10-11T23:05:55.228Z,16.15
2022-10-11T23:08:22.300Z,17.08
2022-10-11T23:10:49.058Z,15.98
2022-10-11T23:13:15.962Z,15.18
2022-10-11T23:15:42.889Z,16.40
2022-10-11T23:18:09.840Z,15.23
2022-10-11T23:20:38.406Z,15.55
2022-10-11T23:23:05.769Z,16.60
2022-10-11T23:25:32.634Z,15.30
2022-10-11T23:28:02.472Z,16.08
2022-10-11T23:30:29.763Z,14.05
2022-10-11T23:32:56.905Z,16.80
2022-10-11T23:35:23.836Z,15.00
2022-10-11T23:37:52.401Z,17.90
2022-10-11T23:40:19.298Z,16.40
2022-10-11T23:42:46.016Z,17.30
2022-10-11T23:45:12.793Z,16.80
2022-10-11T23:47:40.015Z,15.00
2022-10-11T23:50:07.817Z,15.38
2022-10-11T23:52:34.589Z,15.43
2022-10-11T23:55:01.343Z,15.45
2022-10-11T23:57:28.415Z,14.88
2022-10-11T23:59:55.110Z,15.95
